createdAt,value
2019-06-08T00:01:37.719Z,3.30
2019-06-08T00:04:18.606Z,3.10
2019-06-08T00:06:49.896Z,4.07
2019-06-08T00:09:22.558Z,2.40
2019-06-08T00:11:54.145Z,5.40
2019-06-08T00:14:29.127Z,2.57
2019-06-08T00:17:00.303Z,2.27
2019-06-08T00:19:33.421Z,3.63
2019-06-08T00:22:04.822Z,2.97
2019-06-08T00:24:36.488Z,4.70
2019-06-08T00:27:08.087Z,5.43
2019-06-08T00:29:39.376Z,2.70
2019-06-08T00:32:10.637Z,3.77
2019-06-08T00:34:42.037Z,4.23
2019-06-08T00:37:14.546Z,2.87
2019-06-08T00:39:46.665Z,6.03
2019-06-08T00:42:19.170Z,3.47
2019-06-08T00:44:50.678Z,4.40
2019-06-08T00:47:24.707Z,5.03
2019-06-08T00:49:56.198Z,6.63
2019-06-08T00:52:27.391Z,4.27
2019-06-08T00:54:58.694Z,1.67
2019-06-08T00:57:30.249Z,3.13
2019-06-08T01:00:09.717Z,3.10
2019-06-08T01:02:35.996Z,3.23
2019-06-08T01:05:08.191Z,2.10
2019-06-08T01:07:39.585Z,2.60
2019-06-08T01:10:11.903Z,5.53
2019-06-08T01:12:43.169Z,4.90
2019-06-08T01:15:15.343Z,4.33
2019-06-08T01:18:01.553Z,2.23
2019-06-08T01:20:21.552Z,2.57
2019-06-08T01:22:53.676Z,1.97
2019-06-08T01:25:25.801Z,2.40
2019-06-08T01:27:57.108Z,3.70
2019-06-08T01:30:30.420Z,5.70
2019-06-08T01:33:01.800Z,5.50
2019-06-08T01:35:33.130Z,3.33
2019-06-08T01:38:04.465Z,4.47
2019-06-08T01:40:35.704Z,4.17
2019-06-08T01:43:07.275Z,5.27
2019-06-08T01:45:38.575Z,4.73
2019-06-08T01:48:19.936Z,3.30
2019-06-08T01:50:42.834Z,3.10
2019-06-08T01:53:14.050Z,2.93
2019-06-08T01:55:45.285Z,5.07
2019-06-08T01:58:16.525Z,4.73
2019-06-08T02:00:48.083Z,5.40
2019-06-08T02:03:19.409Z,3.77
2019-06-08T02:05:50.719Z,7.53
2019-06-08T02:08:21.931Z,5.43
2019-06-08T02:10:53.206Z,4.50
2019-06-08T02:13:24.992Z,7.07
2019-06-08T02:15:57.219Z,8.13
2019-06-08T02:18:41.559Z,5.17
2019-06-08T02:21:03.250Z,4.60
2019-06-08T02:23:35.155Z,3.27
2019-06-08T02:26:07.385Z,5.87
2019-06-08T02:28:38.578Z,5.80
2019-06-08T02:31:10.655Z,3.07
2019-06-08T02:33:41.918Z,5.63
2019-06-08T02:36:13.167Z,4.77
2019-06-08T02:38:44.445Z,4.60
2019-06-08T02:41:15.900Z,6.07
2019-06-08T02:43:47.341Z,9.97
2019-06-08T02:46:18.563Z,5.97
2019-06-08T02:49:03.512Z,4.80
2019-06-08T02:51:23.660Z,6.83
2019-06-08T02:53:55.059Z,4.93
2019-06-08T02:56:29.839Z,4.90
2019-06-08T02:59:04.185Z,5.90
2019-06-08T03:01:38.256Z,4.30
2019-06-08T03:04:09.182Z,5.50
2019-06-08T03:06:43.999Z,3.63
2019-06-08T03:09:16.726Z,3.37
2019-06-08T03:11:50.652Z,4.07
2019-06-08T03:14:24.851Z,4.97
2019-06-08T03:16:56.659Z,3.93
2019-06-08T03:19:27.881Z,3.13
2019-06-08T03:21:59.401Z,3.50
2019-06-08T03:24:32.489Z,2.47
2019-06-08T03:27:03.726Z,2.60
2019-06-08T03:29:37.074Z,4.63
2019-06-08T03:32:07.928Z,8.00
2019-06-08T03:34:46.820Z,4.73
2019-06-08T03:37:12.158Z,3.20
2019-06-08T03:39:45.166Z,3.10
2019-06-08T03:42:17.025Z,3.97
2019-06-08T03:44:48.330Z,2.73
2019-06-08T03:47:19.643Z,3.90
2019-06-08T03:49:56.668Z,6.03
2019-06-08T03:52:23.881Z,3.43
2019-06-08T03:54:55.073Z,3.67
2019-06-08T03:57:26.384Z,3.47
2019-06-08T03:59:57.652Z,4.27
2019-06-08T04:02:28.910Z,5.07
2019-06-08T04:05:00.162Z,4.77
2019-06-08T04:07:31.575Z,4.73
2019-06-08T04:10:02.994Z,3.77
2019-06-08T04:12:34.819Z,4.13
2019-06-08T04:15:07.698Z,3.50
2019-06-08T04:17:39.777Z,3.93
2019-06-08T04:20:12.425Z,4.93
2019-06-08T04:22:47.225Z,4.07
2019-06-08T04:25:20.580Z,4.33
2019-06-08T04:27:52.004Z,2.87
2019-06-08T04:30:27.223Z,5.20
2019-06-08T04:32:58.925Z,4.87
2019-06-08T04:35:30.165Z,5.23
2019-06-08T04:38:01.776Z,5.53
2019-06-08T04:40:33.051Z,4.80
2019-06-08T04:43:04.495Z,5.43
2019-06-08T04:45:35.819Z,5.93
2019-06-08T04:48:09.706Z,4.97
2019-06-08T04:50:40.973Z,3.57
2019-06-08T04:53:12.777Z,5.10
2019-06-08T04:55:46.509Z,4.50
2019-06-08T04:58:18.345Z,2.83
2019-06-08T05:00:50.876Z,3.97
2019-06-08T05:03:22.475Z,7.17
2019-06-08T05:05:53.791Z,3.83
2019-06-08T05:08:25.252Z,4.33
2019-06-08T05:10:56.483Z,5.53
2019-06-08T05:13:27.824Z,5.13
2019-06-08T05:15:59.014Z,4.17
2019-06-08T05:18:30.867Z,6.78
2019-06-08T05:21:02.705Z,8.30
2019-06-08T05:23:33.987Z,7.95
2019-06-08T05:26:05.902Z,7.67
2019-06-08T05:28:37.237Z,4.90
2019-06-08T05:31:09.006Z,3.73
2019-06-08T05:33:43.339Z,3.22
2019-06-08T05:36:15.621Z,5.65
2019-06-08T05:38:47.661Z,4.42
2019-06-08T05:41:18.912Z,8.30
2019-06-08T05:43:50.338Z,5.50
2019-06-08T05:46:21.698Z,5.15
2019-06-08T05:48:53.672Z,4.97
2019-06-08T05:51:25.240Z,5.40
2019-06-08T05:53:57.200Z,4.45
2019-06-08T05:56:30.054Z,3.52
2019-06-08T05:59:01.946Z,5.65
2019-06-08T06:01:34.651Z,6.80
2019-06-08T06:04:07.827Z,4.90
2019-06-08T06:06:40.435Z,5.03
2019-06-08T06:09:12.565Z,8.23
2019-06-08T06:11:44.776Z,5.33
2019-06-08T06:14:16.967Z,6.20
2019-06-08T06:20:22.441Z,6.37
2019-06-08T06:22:58.512Z,4.90
2019-06-08T06:25:29.579Z,7.03
2019-06-08T06:28:06.100Z,5.05
2019-06-08T06:30:36.977Z,4.40
2019-06-08T06:33:09.702Z,5.80
2019-06-08T06:35:50.068Z,4.37
2019-06-08T06:38:21.024Z,6.75
2019-06-08T06:40:54.487Z,5.33
2019-06-08T06:46:30.763Z,4.85
2019-06-08T06:49:02.801Z,5.45
2019-06-08T06:55:20.106Z,6.70
2019-06-08T06:57:53.837Z,6.92
2019-06-08T07:03:59.320Z,8.40
2019-06-08T07:06:31.357Z,5.58
2019-06-08T07:09:10.260Z,6.70
2019-06-08T07:11:42.276Z,4.25
2019-06-08T07:14:17.246Z,8.55
2019-06-08T07:16:49.879Z,9.55
2019-06-08T07:22:50.213Z,6.80
2019-06-08T07:28:10.167Z,7.92
2019-06-08T07:30:47.712Z,6.33
2019-06-08T07:33:21.363Z,7.42
2019-06-08T07:36:01.048Z,6.53
2019-06-08T07:38:35.060Z,4.83
2019-06-08T07:44:18.980Z,6.28
2019-06-08T07:46:53.749Z,6.55
2019-06-08T07:49:25.799Z,7.12
2019-06-08T07:52:08.309Z,5.92
2019-06-08T07:54:31.350Z,5.95
2019-06-08T07:57:03.132Z,7.97
2019-06-08T07:59:34.962Z,4.78
2019-06-08T08:02:07.108Z,5.00
2019-06-08T08:04:39.167Z,8.73
2019-06-08T08:07:11.206Z,6.67
2019-06-08T08:09:43.179Z,8.08
2019-06-08T08:12:15.124Z,8.00
2019-06-08T08:14:47.101Z,8.70
2019-06-08T08:17:18.925Z,8.63
2019-06-08T08:19:55.071Z,6.25
2019-06-08T08:22:29.466Z,11.35
2019-06-08T08:25:04.595Z,13.00
2019-06-08T08:27:34.069Z,7.12
2019-06-08T08:30:09.332Z,8.55
2019-06-08T08:32:41.167Z,10.78
2019-06-08T08:35:14.086Z,8.50
2019-06-08T08:37:47.411Z,10.08
2019-06-08T08:40:19.599Z,8.00
2019-06-08T08:42:52.366Z,6.75
2019-06-08T08:45:27.484Z,11.03
2019-06-08T08:48:14.870Z,10.35
2019-06-08T08:50:32.599Z,8.68
2019-06-08T08:53:04.646Z,11.85
2019-06-08T08:55:37.968Z,7.95
2019-06-08T08:58:09.987Z,9.50
2019-06-08T09:00:41.890Z,10.25
2019-06-08T09:03:27.868Z,10.50
2019-06-08T09:05:48.270Z,8.90
2019-06-08T09:08:23.167Z,12.40
2019-06-08T09:10:55.358Z,11.18
2019-06-08T09:13:28.239Z,9.15
2019-06-08T09:16:03.934Z,11.57
2019-06-08T09:18:37.438Z,12.13
2019-06-08T09:21:11.088Z,10.40
2019-06-08T09:23:42.943Z,10.32
2019-06-08T09:26:17.602Z,8.35
2019-06-08T09:28:49.438Z,12.23
2019-06-08T09:31:21.356Z,6.62
2019-06-08T09:34:02.576Z,9.28
2019-06-08T09:36:28.818Z,6.92
2019-06-08T09:39:04.456Z,4.40
2019-06-08T09:41:38.067Z,9.25
2019-06-08T09:44:12.129Z,6.12
2019-06-08T09:46:44.283Z,5.25
2019-06-08T09:49:18.560Z,6.10
2019-06-08T09:51:50.217Z,7.08
2019-06-08T09:54:22.035Z,6.90
2019-06-08T09:56:54.053Z,4.65
2019-06-08T09:59:28.426Z,6.50
2019-06-08T10:02:05.622Z,5.57
2019-06-08T10:04:33.379Z,8.13
2019-06-08T10:07:09.694Z,9.65
2019-06-08T10:09:43.246Z,3.37
2019-06-08T10:12:14.124Z,9.48
2019-06-08T10:14:48.776Z,10.03
2019-06-08T10:17:21.076Z,6.20
2019-06-08T10:19:54.516Z,5.62
2019-06-08T10:22:28.295Z,6.25
2019-06-08T10:25:03.727Z,7.30
2019-06-08T10:27:33.620Z,6.08
2019-06-08T10:30:10.574Z,7.28
2019-06-08T10:32:42.439Z,8.10
2019-06-08T10:35:14.773Z,8.30
2019-06-08T10:37:47.846Z,10.32
2019-06-08T10:40:22.429Z,9.53
2019-06-08T10:42:54.304Z,8.15
2019-06-08T10:45:28.439Z,12.43
2019-06-08T10:48:01.499Z,13.05
2019-06-08T10:50:33.415Z,9.73
2019-06-08T10:53:10.885Z,11.83
2019-06-08T10:55:42.298Z,10.45
2019-06-08T10:58:14.252Z,8.75
2019-06-08T11:00:48.056Z,10.03
2019-06-08T11:03:19.690Z,8.90
2019-06-08T11:05:51.773Z,9.08
2019-06-08T11:08:24.418Z,9.53
2019-06-08T11:10:57.914Z,8.13
2019-06-08T11:13:30.731Z,8.63
2019-06-08T11:16:04.421Z,13.15
2019-06-08T11:18:36.827Z,11.48
2019-06-08T11:21:12.578Z,10.18
2019-06-08T11:23:42.773Z,7.87
2019-06-08T11:26:20.879Z,8.68
2019-06-08T11:28:51.166Z,9.80
2019-06-08T11:31:23.536Z,10.82
2019-06-08T11:33:58.483Z,10.28
2019-06-08T11:36:29.638Z,11.22
2019-06-08T11:39:02.544Z,11.68
2019-06-08T11:41:36.103Z,10.60
2019-06-08T11:44:13.634Z,9.15
2019-06-08T11:46:44.442Z,10.75
2019-06-08T11:49:18.471Z,9.50
2019-06-08T11:51:49.019Z,10.78
2019-06-08T11:54:32.989Z,8.33
2019-06-08T11:57:00.684Z,10.13
2019-06-08T11:59:34.395Z,12.90
2019-06-08T12:02:09.034Z,7.97
2019-06-08T12:04:39.990Z,11.22
2019-06-08T12:07:13.705Z,8.88
2019-06-08T12:09:49.919Z,15.32
2019-06-08T12:12:21.397Z,9.40
2019-06-08T12:14:54.455Z,14.40
2019-06-08T12:17:28.247Z,9.50
2019-06-08T12:20:00.445Z,10.65
2019-06-08T12:22:47.839Z,9.40
2019-06-08T12:25:20.388Z,10.48
2019-06-08T12:27:52.866Z,11.55
2019-06-08T12:30:26.247Z,12.03
2019-06-08T12:32:59.730Z,11.45
2019-06-08T12:35:31.664Z,9.70
2019-06-08T12:38:03.776Z,9.23
2019-06-08T12:40:38.321Z,12.30
2019-06-08T12:43:11.725Z,12.10
2019-06-08T12:45:43.583Z,12.88
2019-06-08T12:48:19.561Z,15.32
2019-06-08T12:50:49.222Z,9.80
2019-06-08T12:53:22.994Z,14.50
2019-06-08T12:55:54.759Z,6.05
2019-06-08T12:58:28.212Z,10.88
2019-06-08T13:01:01.584Z,12.95
2019-06-08T13:03:33.608Z,11.10
2019-06-08T13:06:08.841Z,12.47
2019-06-08T13:08:39.599Z,9.90
2019-06-08T13:11:16.493Z,7.95
2019-06-08T13:13:49.041Z,6.58
2019-06-08T13:16:24.213Z,10.30
2019-06-08T13:18:54.806Z,7.50
2019-06-08T13:21:34.681Z,11.05
2019-06-08T13:24:00.545Z,12.25
2019-06-08T13:26:32.708Z,13.75
2019-06-08T13:29:04.816Z,7.92
2019-06-08T13:31:38.316Z,9.38
2019-06-08T13:34:13.014Z,9.00
2019-06-08T13:36:44.363Z,16.00
2019-06-08T13:39:19.570Z,8.90
2019-06-08T13:41:52.490Z,14.07
2019-06-08T13:44:24.442Z,10.88
2019-06-08T13:46:57.782Z,9.43
2019-06-08T13:49:30.933Z,13.78
2019-06-08T13:52:03.062Z,11.68
2019-06-08T13:54:35.051Z,13.35
2019-06-08T13:57:08.500Z,10.43
2019-06-08T13:59:40.524Z,14.47
2019-06-08T14:02:13.540Z,12.65
2019-06-08T14:04:46.776Z,14.55
2019-06-08T14:07:24.512Z,13.83
2019-06-08T14:09:52.864Z,13.68
2019-06-08T14:12:25.791Z,15.00
2019-06-08T14:14:58.568Z,12.20
2019-06-08T14:17:32.522Z,16.15
2019-06-08T14:20:08.058Z,15.68
2019-06-08T14:22:40.261Z,12.07
2019-06-08T14:25:12.368Z,12.23
2019-06-08T14:27:44.199Z,16.77
2019-06-08T14:30:18.221Z,15.68
2019-06-08T14:32:49.617Z,20.35
2019-06-08T14:35:23.788Z,13.28
2019-06-08T14:37:57.799Z,15.00
2019-06-08T14:40:32.671Z,14.85
2019-06-08T14:43:02.485Z,11.70
2019-06-08T14:45:34.373Z,12.18
2019-06-08T14:48:07.406Z,14.50
2019-06-08T14:50:41.048Z,14.65
2019-06-08T14:53:13.020Z,12.43
2019-06-08T14:55:44.922Z,10.40
2019-06-08T14:58:19.179Z,13.85
2019-06-08T15:00:50.609Z,10.90
2019-06-08T15:03:23.119Z,12.18
2019-06-08T15:05:54.936Z,12.30
2019-06-08T15:08:28.618Z,11.63
2019-06-08T15:11:00.317Z,11.43
2019-06-08T15:13:32.105Z,11.15
2019-06-08T15:16:04.008Z,13.18
2019-06-08T15:18:38.533Z,13.80
2019-06-08T15:21:11.974Z,17.92
2019-06-08T15:23:44.731Z,14.55
2019-06-08T15:26:23.999Z,13.78
2019-06-08T15:28:50.567Z,12.63
2019-06-08T15:31:23.061Z,14.63
2019-06-08T15:33:55.039Z,14.40
2019-06-08T15:36:29.517Z,13.70
2019-06-08T15:39:00.401Z,17.95
2019-06-08T15:41:33.852Z,13.25
2019-06-08T15:44:05.781Z,15.28
2019-06-08T15:46:37.935Z,15.48
2019-06-08T15:49:11.399Z,12.88
2019-06-08T15:51:43.339Z,12.07
2019-06-08T15:54:15.167Z,15.98
2019-06-08T15:56:51.356Z,13.65
2019-06-08T15:59:20.608Z,19.45
2019-06-08T16:01:53.744Z,12.75
2019-06-08T16:04:25.792Z,11.03
2019-06-08T16:06:57.687Z,14.35
2019-06-08T16:09:29.976Z,16.77
2019-06-08T16:12:01.866Z,14.18
2019-06-08T16:14:34.925Z,15.20
2019-06-08T16:17:07.038Z,14.80
2019-06-08T16:19:39.094Z,15.83
2019-06-08T16:22:11.043Z,15.63
2019-06-08T16:24:42.891Z,16.23
2019-06-08T16:27:14.882Z,14.35
2019-06-08T16:29:46.762Z,17.40
2019-06-08T16:32:18.590Z,15.45
2019-06-08T16:34:50.546Z,10.18
2019-06-08T16:37:22.452Z,12.93
2019-06-08T16:39:54.564Z,14.70
2019-06-08T16:42:27.791Z,17.48
2019-06-08T16:44:59.667Z,9.45
2019-06-08T16:47:31.492Z,11.48
2019-06-08T16:50:03.835Z,17.52
2019-06-08T16:52:36.683Z,15.93
2019-06-08T16:55:08.915Z,16.02
2019-06-08T16:57:41.277Z,15.78
2019-06-08T17:00:31.399Z,13.35
2019-06-08T17:02:47.555Z,14.75
2019-06-08T17:05:21.019Z,11.65
2019-06-08T17:07:55.939Z,18.70
2019-06-08T17:10:27.904Z,15.58
2019-06-08T17:13:00.107Z,17.27
2019-06-08T17:15:32.063Z,14.35
2019-06-08T17:18:04.269Z,18.00
2019-06-08T17:20:36.294Z,19.10
2019-06-08T17:23:08.426Z,16.60
2019-06-08T17:25:41.543Z,28.25
2019-06-08T17:28:13.401Z,15.08
2019-06-08T17:30:46.653Z,11.15
2019-06-08T17:33:18.937Z,16.67
2019-06-08T17:35:50.826Z,12.05
2019-06-08T17:38:22.847Z,14.83
2019-06-08T17:40:54.724Z,14.23
2019-06-08T17:43:26.617Z,16.70
2019-06-08T17:45:58.916Z,14.98
2019-06-08T17:48:30.790Z,20.23
2019-06-08T17:51:02.826Z,14.58
2019-06-08T17:53:35.163Z,15.05
2019-06-08T17:56:07.726Z,12.33
2019-06-08T17:58:39.691Z,11.03
2019-06-08T18:01:11.835Z,9.78
2019-06-08T18:03:44.730Z,13.62
2019-06-08T18:06:17.994Z,13.38
2019-06-08T18:08:49.833Z,10.93
2019-06-08T18:11:21.912Z,14.10
2019-06-08T18:13:54.770Z,14.10
2019-06-08T18:16:27.853Z,15.65
2019-06-08T18:18:59.997Z,10.40
2019-06-08T18:28:46.196Z,14.05
2019-06-08T18:34:53.681Z,9.03
2019-06-08T18:37:25.181Z,13.25
2019-06-08T18:39:57.858Z,12.88
2019-06-08T18:42:29.562Z,15.75
2019-06-08T18:45:02.513Z,11.73
2019-06-08T18:47:40.327Z,8.65
2019-06-08T18:50:14.000Z,11.80
2019-06-08T18:52:47.283Z,13.10
2019-06-08T18:55:23.420Z,13.15
2019-06-08T18:57:52.069Z,13.38
2019-06-08T19:00:30.648Z,15.93
2019-06-08T19:05:52.151Z,17.75
2019-06-08T19:08:24.509Z,17.17
2019-06-08T19:10:58.171Z,10.35
2019-06-08T19:13:30.476Z,11.93
2019-06-08T19:16:02.774Z,15.50
2019-06-08T19:18:34.207Z,19.77
2019-06-08T19:21:07.769Z,7.97
2019-06-08T19:23:41.847Z,19.32
2019-06-08T19:26:12.003Z,17.27
2019-06-08T19:28:47.811Z,14.50
2019-06-08T19:31:23.598Z,14.55
2019-06-08T19:33:53.653Z,9.43
2019-06-08T19:36:28.568Z,10.28
2019-06-08T19:39:07.010Z,10.58
2019-06-08T19:41:39.419Z,10.20
2019-06-08T19:44:13.398Z,7.47
2019-06-08T19:46:47.538Z,8.38
2019-06-08T19:49:17.797Z,14.25
2019-06-08T19:51:53.461Z,17.05
2019-06-08T19:54:23.667Z,16.40
2019-06-08T19:56:57.249Z,15.13
2019-06-08T19:59:28.599Z,18.52
2019-06-08T20:02:00.064Z,20.95
2019-06-08T20:04:31.651Z,17.12
2019-06-08T20:07:03.578Z,16.70
2019-06-08T20:09:37.623Z,17.77
2019-06-08T20:12:08.992Z,16.32
2019-06-08T20:14:41.314Z,11.75
2019-06-08T20:17:13.574Z,14.75
2019-06-08T20:19:48.044Z,11.43
2019-06-08T20:22:19.276Z,14.25
2019-06-08T20:24:55.325Z,15.72
2019-06-08T20:27:24.854Z,11.57
2019-06-08T20:29:58.208Z,12.35
2019-06-08T20:32:31.295Z,12.18
2019-06-08T20:35:03.283Z,12.98
2019-06-08T20:37:37.672Z,16.32
2019-06-08T20:40:14.182Z,14.23
2019-06-08T20:42:49.074Z,11.80
2019-06-08T20:45:19.684Z,10.05
2019-06-08T20:47:52.687Z,12.98
2019-06-08T20:50:27.129Z,15.43
2019-06-08T20:52:58.840Z,13.25
2019-06-08T20:55:30.159Z,14.10
2019-06-08T20:58:02.096Z,12.55
2019-06-08T21:00:33.416Z,11.33
2019-06-08T21:03:05.220Z,26.15
2019-06-08T21:05:37.075Z,22.20
2019-06-08T21:08:11.516Z,16.47
2019-06-08T21:10:46.040Z,21.80
2019-06-08T21:13:18.234Z,14.95
2019-06-08T21:15:53.822Z,19.30
2019-06-08T21:18:22.528Z,21.23
2019-06-08T21:20:55.856Z,15.80
2019-06-08T21:23:31.895Z,17.92
2019-06-08T21:26:03.337Z,16.93
2019-06-08T21:28:35.208Z,14.70
2019-06-08T21:31:08.492Z,19.50
2019-06-08T21:33:39.833Z,24.50
2019-06-08T21:36:11.773Z,17.45
2019-06-08T21:38:43.563Z,21.50
2019-06-08T21:41:17.194Z,17.50
2019-06-08T21:43:53.075Z,14.13
2019-06-08T21:46:27.531Z,13.70
2019-06-08T21:49:08.839Z,12.10
2019-06-08T21:51:51.491Z,14.38
2019-06-08T21:54:30.199Z,18.85
2019-06-08T21:57:06.682Z,16.52
2019-06-08T21:59:49.925Z,24.15
2019-06-08T22:02:27.105Z,19.20
2019-06-08T22:05:04.653Z,20.77
2019-06-08T22:07:42.514Z,22.67
2019-06-08T22:10:19.783Z,16.40
2019-06-08T22:12:53.539Z,19.05
2019-06-08T22:15:27.118Z,19.05
2019-06-08T22:18:00.156Z,17.42
2019-06-08T22:20:38.347Z,20.80
2019-06-08T22:23:10.271Z,17.93
2019-06-08T22:25:42.022Z,16.63
2019-06-08T22:28:17.585Z,18.92
2019-06-08T22:30:48.527Z,18.10
2019-06-08T22:33:22.630Z,19.62
2019-06-08T22:35:54.197Z,13.63
2019-06-08T22:38:25.638Z,18.07
2019-06-08T22:40:57.648Z,24.33
2019-06-08T22:43:31.903Z,15.23
2019-06-08T22:46:08.062Z,14.45
2019-06-08T22:48:38.951Z,19.48
2019-06-08T22:51:10.151Z,16.10
2019-06-08T22:53:41.419Z,18.75
2019-06-08T22:56:18.316Z,18.32
2019-06-08T22:58:49.828Z,18.12
2019-06-08T23:01:21.342Z,19.10
2019-06-08T23:03:53.664Z,16.63
2019-06-08T23:06:28.139Z,17.45
2019-06-08T23:09:01.456Z,13.48
2019-06-08T23:11:33.750Z,14.37
2019-06-08T23:14:10.351Z,14.77
2019-06-08T23:16:39.716Z,20.67
2019-06-08T23:19:12.870Z,18.73
2019-06-08T23:21:47.501Z,14.53
2019-06-08T23:24:19.205Z,18.40
2019-06-08T23:26:52.306Z,22.73
2019-06-08T23:29:23.649Z,17.53
2019-06-08T23:31:54.894Z,19.17
2019-06-08T23:34:27.661Z,19.32
2019-06-08T23:37:05.852Z,15.30
2019-06-08T23:39:37.398Z,18.32
2019-06-08T23:42:08.209Z,17.05
2019-06-08T23:44:41.881Z,14.40
2019-06-08T23:47:17.911Z,14.40
2019-06-08T23:49:50.881Z,15.93
2019-06-08T23:52:22.479Z,17.90
2019-06-08T23:54:53.956Z,17.45
2019-06-08T23:57:27.178Z,17.63
